Time,TemperatureF,DewpointF,PressureIn,WindDirection,WindDirectionDegrees,WindSpeedMPH,WindSpeedGustMPH,Humidity,HourlyPrecipIn,Conditions,Clouds,dailyrainin,SoftwareType,DateUTC
2013-05-25 00:00:00,55.2,47.5,30.29,NNE,23,0.0,0.0,75,0.00,,,0.00,WUHU216TE923,2013-05-25 04:00:00,
2013-05-25 00:01:00,55.2,47.5,30.29,NNE,23,0.0,0.0,75,0.00,,,0.00,WUHU216TE923,2013-05-25 04:01:00,
2013-05-25 00:06:00,55.2,47.2,30.29,NE,45,0.2,0.2,74,0.00,,,0.00,WUHU216TE923,2013-05-25 04:06:00,
2013-05-25 00:11:00,55.2,47.2,30.29,NE,45,0.2,0.2,74,0.00,,,0.00,WUHU216TE923,2013-05-25 04:11:00,
2013-05-25 00:16:00,55.2,47.2,30.29,NNE,23,0.7,0.7,74,0.00,,,0.00,WUHU216TE923,2013-05-25 04:16:00,
2013-05-25 00:21:00,54.3,46.3,30.29,NNE,23,0.3,0.7,74,0.00,,,0.00,WUHU216TE923,2013-05-25 04:21:00,
2013-05-25 00:26:00,54.5,46.8,30.29,NNE,23,0.0,0.3,75,0.00,,,0.00,WUHU216TE923,2013-05-25 04:26:00,
2013-05-25 00:31:00,54.5,46.8,30.29,NNE,23,0.0,0.0,75,0.00,,,0.00,WUHU216TE923,2013-05-25 04:31:00,
2013-05-25 00:36:00,54.5,46.8,30.29,NNE,23,0.0,0.0,75,0.00,,,0.00,WUHU216TE923,2013-05-25 04:36:00,
2013-05-25 00:41:00,54.3,46.6,30.28,NNE,23,0.0,0.0,75,0.00,,,0.00,WUHU216TE923,2013-05-25 04:41:00,
2013-05-25 00:46:00,54.3,47.0,30.28,NNE,23,0.0,0.0,76,0.00,,,0.00,WUHU216TE923,2013-05-25 04:46:00,
2013-05-25 00:51:00,54.1,46.8,30.28,NNE,23,0.0,0.0,76,0.00,,,0.00,WUHU216TE923,2013-05-25 04:51:00,
2013-05-25 00:56:00,54.1,46.8,30.28,NNE,23,0.0,0.0,76,0.00,,,0.00,WUHU216TE923,2013-05-25 04:56:00,
2013-05-25 01:01:00,54.1,47.1,30.29,NNE,23,0.0,0.0,77,0.00,,,0.00,WUHU216TE923,2013-05-25 05:01:00,
2013-05-25 01:06:00,53.8,46.8,30.29,NNE,23,0.4,2.0,77,0.00,,,0.00,WUHU216TE923,2013-05-25 05:06:00,
2013-05-25 01:11:00,53.4,46.1,30.29,NNE,23,0.5,2.0,76,0.00,,,0.00,WUHU216TE923,2013-05-25 05:11:00,
2013-05-25 01:16:00,53.4,46.1,30.29,NNE,23,0.2,0.5,76,0.00,,,0.00,WUHU216TE923,2013-05-25 05:16:00,
2013-05-25 01:21:00,53.4,46.4,30.28,NNE,23,0.0,0.2,77,0.00,,,0.00,WUHU216TE923,2013-05-25 05:21:00,
2013-05-25 01:26:00,53.4,46.4,30.28,NNE,23,0.0,0.0,77,0.00,,,0.00,WUHU216TE923,2013-05-25 05:26:00,
2013-05-25 01:31:00,53.4,46.1,30.28,NNE,23,0.0,0.0,76,0.00,,,0.00,WUHU216TE923,2013-05-25 05:31:00,
2013-05-25 01:36:00,53.4,46.1,30.28,NNE,23,0.0,0.0,76,0.00,,,0.00,WUHU216TE923,2013-05-25 05:36:00,
2013-05-25 01:41:00,53.1,46.1,30.28,NNE,23,0.0,0.0,77,0.00,,,0.00,WUHU216TE923,2013-05-25 05:41:00,
2013-05-25 01:46:00,53.2,46.6,30.28,NNE,23,0.0,0.0,78,0.00,,,0.00,WUHU216TE923,2013-05-25 05:46:00,
2013-05-25 01:51:00,53.4,46.4,30.28,NNE,23,0.0,0.0,77,0.00,,,0.00,WUHU216TE923,2013-05-25 05:51:00,
2013-05-25 01:56:00,53.1,46.1,30.28,NNE,23,0.2,1.2,77,0.00,,,0.00,WUHU216TE923,2013-05-25 05:56:00,
2013-05-25 02:01:00,52.9,45.6,30.28,NNE,23,0.5,1.2,76,0.00,,,0.00,WUHU216TE923,2013-05-25 06:01:00,
2013-05-25 02:06:00,52.5,45.2,30.28,NNE,23,0.3,0.5,76,0.00,,,0.00,WUHU216TE923,2013-05-25 06:06:00,
2013-05-25 02:11:00,52.5,45.2,30.28,NNE,23,0.0,0.3,76,0.00,,,0.00,WUHU216TE923,2013-05-25 06:11:00,
2013-05-25 02:16:00,52.5,45.2,30.28,NNE,23,0.0,0.0,76,0.00,,,0.00,WUHU216TE923,2013-05-25 06:16:00,
2013-05-25 02:21:00,52.5,45.2,30.28,NNE,23,0.0,0.0,76,0.00,,,0.00,WUHU216TE923,2013-05-25 06:21:00,
2013-05-25 02:26:00,52.7,45.4,30.28,NNE,23,0.0,0.0,76,0.00,,,0.00,WUHU216TE923,2013-05-25 06:26:00,
2013-05-25 02:31:00,52.7,45.8,30.28,NNE,23,0.0,0.0,77,0.00,,,0.00,WUHU216TE923,2013-05-25 06:31:00,
2013-05-25 02:36:00,52.3,45.4,30.28,NNE,23,0.0,0.0,77,0.00,,,0.00,WUHU216TE923,2013-05-25 06:36:00,
2013-05-25 02:41:00,52.3,45.4,30.26,NNE,23,0.0,0.0,77,0.00,,,0.00,WUHU216TE923,2013-05-25 06:41:00,
2013-05-25 02:46:00,52.2,45.3,30.26,NNE,23,0.0,0.0,77,0.00,,,0.00,WUHU216TE923,2013-05-25 06:46:00,
2013-05-25 02:51:00,52.2,45.3,30.26,NNE,23,0.0,0.0,77,0.00,,,0.00,WUHU216TE923,2013-05-25 06:51:00,
2013-05-25 02:56:00,52.3,45.7,30.26,NNE,23,0.0,0.0,78,0.00,,,0.00,WUHU216TE923,2013-05-25 06:56:00,
2013-05-25 03:01:00,52.3,45.7,30.26,NNE,23,0.0,0.0,78,0.00,,,0.00,WUHU216TE923,2013-05-25 07:01:00,
2013-05-25 03:06:00,52.2,45.6,30.26,NNE,23,0.0,0.0,78,0.00,,,0.00,WUHU216TE923,2013-05-25 07:06:00,
2013-05-25 03:11:00,52.2,45.6,30.26,NNE,23,0.0,0.0,78,0.00,,,0.00,WUHU216TE923,2013-05-25 07:11:00,
2013-05-25 03:16:00,52.2,45.6,30.26,NNE,23,0.0,0.0,78,0.00,,,0.00,WUHU216TE923,2013-05-25 07:16:00,
2013-05-25 03:21:00,51.3,44.1,30.27,NNE,23,0.2,0.2,76,0.00,,,0.00,WUHU216TE923,2013-05-25 07:21:00,